Nome, Alaska
Current Conditions -  °F | °C
As of 4:53 AM on Saturday 25 Oct 2014 (Local Time) from PAOM Reporting Station
Light Rain Light Rain  
Wind Chill: -5°   Ceiling: 800
Heat Index:   Visibility: 7mi
Dew Point:   Wind: 22mph
Humidity: 100%   Direction: 170°S
Pressure: 29.61"   Gusts: 28mph
Location:  64.5°N, 165.41°W
Report Text: PAOM 251253Z COR 17019G24KT 7SM -RA OVC008 02/02 A2961 RMK RAB1155 SLP026 P0001 T00170017 VIA AUTODIAL
Loading
Personal Weather Stations






























Interactive Weather Map
Tropical Storm Tracking
New forecast layout! Learn more

10-Day Weather Forecast

Advertisements
Track Severe Weather on mobile